Time;durP1;ratioP1;P1;durP2;ratioP2;P2;SDS_P1;SDS_P2;PMS_P1;PMS_P2;Temp;Humidity;BMP_temperature;BMP_pressure;BME280_temperature;BME280_humidity;BME280_pressure;Samples;Min_cycle;Max_cycle;Signal;HPM_P1;HPM_P2
2021/08/19 00:00:46;;;;;;;0.43;0.43;;;;;;;19.58;67.58;98838.47;5113051;27;40489;-84
2021/08/19 00:03:15;;;;;;;0.40;0.40;;;;;;;19.57;67.66;98835.94;5112472;27;41972;-82
2021/08/19 00:05:43;;;;;;;0.23;0.23;;;;;;;19.57;67.66;98841.31;5113381;27;43403;-83
2021/08/19 00:08:10;;;;;;;0.63;0.63;;;;;;;19.55;67.91;98833.41;5129425;27;41415;-83
2021/08/19 00:10:38;;;;;;;0.73;0.50;;;;;;;19.54;68.01;98837.09;5109553;28;40117;-83
2021/08/19 00:13:06;;;;;;;0.60;0.60;;;;;;;19.52;68.40;98833.75;5142695;27;42010;-82
2021/08/19 00:15:33;;;;;;;0.37;0.37;;;;;;;19.51;68.12;98826.66;5111413;28;43439;-83
2021/08/19 00:18:01;;;;;;;0.40;0.40;;;;;;;19.29;68.30;98800.19;5118523;27;42363;-84
2021/08/19 00:20:31;;;;;;;0.67;0.63;;;;;;;19.48;68.43;98826.09;5130024;27;38716;-84
2021/08/19 00:23:01;;;;;;;0.63;0.60;;;;;;;19.47;68.40;98819.88;5112749;27;42041;-83
2021/08/19 00:25:29;;;;;;;0.50;0.50;;;;;;;19.49;68.16;98822.44;5130184;27;42688;-84
2021/08/19 00:27:56;;;;;;;0.50;0.50;;;;;;;19.47;68.52;98819.88;5127984;27;41124;-82
2021/08/19 00:30:24;;;;;;;0.43;0.43;;;;;;;19.47;68.37;98822.56;5112995;27;39319;-84
2021/08/19 00:32:51;;;;;;;0.40;0.40;;;;;;;19.45;68.89;98821.00;5111416;27;40646;-82
2021/08/19 00:35:19;;;;;;;0.50;0.50;;;;;;;19.43;68.73;98818.47;5112518;27;41825;-84
2021/08/19 00:37:48;;;;;;;0.50;0.50;;;;;;;19.44;68.45;98816.63;5129997;27;42466;-84
2021/08/19 00:40:16;;;;;;;0.40;0.40;;;;;;;19.46;68.59;98818.19;5129874;27;41017;-83
2021/08/19 00:42:44;;;;;;;0.50;0.50;;;;;;;19.26;68.62;98789.78;5113258;27;40732;-84
2021/08/19 00:45:12;;;;;;;0.47;0.47;;;;;;;19.44;68.71;98814.78;5116415;27;43209;-82
2021/08/19 00:47:40;;;;;;;0.40;0.40;;;;;;;19.44;68.70;98820.16;5133640;27;42368;-85
2021/08/19 00:50:09;;;;;;;0.50;0.50;;;;;;;19.36;68.40;98798.63;5133603;27;40344;-82
2021/08/19 00:52:38;;;;;;;0.60;0.60;;;;;;;19.42;68.86;98805.19;5115575;27;41746;-83
2021/08/19 00:55:12;;;;;;;0.43;0.43;;;;;;;19.37;68.59;98798.47;5133168;27;43663;-83
2021/08/19 00:57:42;;;;;;;0.40;0.40;;;;;;;19.34;68.53;98793.41;5095966;28;41257;-84
2021/08/19 01:00:11;;;;;;;0.73;0.73;;;;;;;19.33;68.73;98786.34;5110711;27;41222;-84
2021/08/19 01:02:42;;;;;;;0.50;0.50;;;;;;;19.41;68.91;98804.34;5131513;27;41674;-85
2021/08/19 01:05:10;;;;;;;0.47;0.47;;;;;;;19.39;68.60;98795.63;5132435;27;41952;-84
2021/08/19 01:07:38;;;;;;;0.33;0.33;;;;;;;19.42;68.70;98800.69;5133442;27;41673;-84
2021/08/19 01:10:08;;;;;;;0.30;0.30;;;;;;;19.39;68.50;98798.31;5130442;27;40256;-83
2021/08/19 01:12:35;;;;;;;0.27;0.27;;;;;;;19.40;68.50;98800.00;5132139;27;41964;-84
2021/08/19 01:15:04;;;;;;;0.60;0.57;;;;;;;19.41;68.57;98801.66;5133609;27;42953;-83
2021/08/19 01:17:32;;;;;;;0.57;0.37;;;;;;;19.35;68.68;98797.78;5114563;27;41276;-83
2021/08/19 01:20:00;;;;;;;0.60;0.60;;;;;;;19.40;68.24;98805.38;5131844;27;39349;-82
2021/08/19 01:22:27;;;;;;;0.67;0.57;;;;;;;19.40;68.28;98799.16;5115544;27;42807;-84
2021/08/19 01:24:55;;;;;;;0.40;0.40;;;;;;;19.33;68.77;98796.22;5114901;27;43118;-82
2021/08/19 01:27:25;;;;;;;0.60;0.60;;;;;;;19.38;68.84;98802.00;5115592;27;41673;-85
2021/08/19 01:29:52;;;;;;;0.50;0.50;;;;;;;19.28;68.76;98794.03;5114546;27;39786;-85
2021/08/19 01:32:22;;;;;;;0.70;0.70;;;;;;;19.01;68.74;98743.91;5131534;27;41622;-85
2021/08/19 01:34:52;;;;;;;0.60;0.60;;;;;;;19.36;68.51;98806.66;5132214;27;42201;-85
2021/08/19 01:37:19;;;;;;;0.50;0.50;;;;;;;19.31;68.55;98799.06;5131986;27;42565;-83
2021/08/19 01:39:47;;;;;;;0.60;0.60;;;;;;;19.26;68.58;98790.63;5111176;28;39488;-82
2021/08/19 01:42:15;;;;;;;0.60;0.60;;;;;;;19.35;68.73;98800.44;5112193;28;42262;-84
2021/08/19 01:44:45;;;;;;;0.33;0.33;;;;;;;19.35;68.45;98795.09;5112154;28;43038;-83
2021/08/19 01:47:14;;;;;;;0.37;0.37;;;;;;;19.34;68.81;98792.53;5111799;27;41301;-83
2021/08/19 01:49:42;;;;;;;0.40;0.40;;;;;;;19.34;68.51;98793.41;5115662;27;39190;-83
2021/08/19 01:52:11;;;;;;;0.37;0.37;;;;;;;19.34;68.55;98797.91;5131901;27;42018;-83
2021/08/19 01:54:39;;;;;;;0.60;0.60;;;;;;;19.33;68.60;98790.84;5131288;27;43396;-83
2021/08/19 01:57:06;;;;;;;0.93;0.87;;;;;;;19.34;68.49;98792.53;5110019;28;41354;-83
2021/08/19 01:59:34;;;;;;;0.70;0.70;;;;;;;19.24;68.81;98783.72;5111819;28;40867;-82
2021/08/19 02:02:03;;;;;;;0.60;0.60;;;;;;;19.30;68.64;98791.16;5108867;28;41184;-83
2021/08/19 02:04:30;;;;;;;0.60;0.60;;;;;;;19.32;68.54;98798.06;5105127;27;43421;-84
2021/08/19 02:06:59;;;;;;;0.40;0.40;;;;;;;19.31;68.54;98782.94;5114091;27;41481;-84
2021/08/19 02:09:26;;;;;;;0.50;0.50;;;;;;;19.32;68.39;98791.84;5131619;27;40475;-84
2021/08/19 02:11:54;;;;;;;0.50;0.50;;;;;;;19.31;68.71;98787.47;5132481;27;42044;-84
2021/08/19 02:14:22;;;;;;;0.60;0.60;;;;;;;19.31;68.84;98790.16;5128952;27;42893;-84
2021/08/19 02:16:49;;;;;;;0.80;0.80;;;;;;;19.26;68.95;98795.16;5131091;27;41730;-84
2021/08/19 02:19:18;;;;;;;0.50;0.50;;;;;;;19.27;68.65;98794.16;5112085;27;40934;-83
2021/08/19 02:21:46;;;;;;;0.77;0.77;;;;;;;19.27;68.46;98796.84;5127527;27;41613;-83
2021/08/19 02:24:13;;;;;;;0.57;0.57;;;;;;;19.18;68.57;98776.25;5129679;27;42248;-83
2021/08/19 02:26:41;;;;;;;0.70;0.70;;;;;;;19.28;68.30;98787.81;5113200;27;41447;-83
2021/08/19 02:29:09;;;;;;;0.50;0.50;;;;;;;19.29;68.47;98793.00;5110862;27;38596;-82
2021/08/19 02:31:40;;;;;;;0.30;0.30;;;;;;;19.28;68.52;98787.81;5131451;27;41876;-83
2021/08/19 02:34:08;;;;;;;0.60;0.60;;;;;;;19.20;68.46;98769.75;5114908;27;42107;-83
2021/08/19 02:36:37;;;;;;;0.60;0.60;;;;;;;19.30;68.45;98791.16;5131741;27;43417;-83
2021/08/19 02:39:04;;;;;;;0.50;0.50;;;;;;;19.22;68.23;98778.50;5130018;27;40804;-83
2021/08/19 02:41:32;;;;;;;0.50;0.50;;;;;;;19.29;68.54;98789.47;5129953;27;41708;-84
2021/08/19 02:43:59;;;;;;;0.60;0.60;;;;;;;19.29;68.54;98786.78;5113651;27;42018;-84
2021/08/19 02:46:28;;;;;;;0.50;0.50;;;;;;;19.28;68.20;98782.44;5130196;27;43068;-82
2021/08/19 02:48:55;;;;;;;0.60;0.60;;;;;;;19.26;68.30;98790.63;5113733;27;39002;-81
2021/08/19 02:51:23;;;;;;;0.50;0.50;;;;;;;19.27;68.20;98791.47;5113759;27;40778;-82
2021/08/19 02:53:52;;;;;;;0.40;0.40;;;;;;;19.27;68.39;98788.78;5131718;27;43036;-83
2021/08/19 02:56:20;;;;;;;0.67;0.67;;;;;;;19.24;68.42;98786.41;5114112;27;42699;-82
2021/08/19 02:58:47;;;;;;;0.53;0.53;;;;;;;19.23;68.56;98787.41;5131815;27;39126;-84
2021/08/19 03:01:15;;;;;;;0.60;0.60;;;;;;;19.23;68.58;98779.34;5130599;27;41692;-83
2021/08/19 03:03:42;;;;;;;0.50;0.50;;;;;;;19.22;68.54;98785.72;5114118;27;43176;-85
2021/08/19 03:06:10;;;;;;;0.60;0.50;;;;;;;19.21;68.56;98789.38;5113207;27;42106;-83
2021/08/19 03:08:37;;;;;;;0.80;0.80;;;;;;;19.08;68.78;98772.81;5131742;27;41089;-83
2021/08/19 03:11:06;;;;;;;0.60;0.60;;;;;;;19.12;68.64;98779.56;5114279;27;41622;-81
2021/08/19 03:13:34;;;;;;;0.93;0.93;;;;;;;19.08;68.75;98780.84;5129988;27;41732;-85
2021/08/19 03:16:02;;;;;;;0.60;0.60;;;;;;;18.96;68.82;98756.06;5131168;27;42467;-84
2021/08/19 03:18:30;;;;;;;0.40;0.40;;;;;;;19.10;68.91;98779.72;5092659;28;38882;-85
2021/08/19 03:20:58;;;;;;;0.60;0.60;;;;;;;19.09;69.06;98777.19;5093685;28;40820;-83
2021/08/19 03:23:25;;;;;;;0.50;0.50;;;;;;;19.08;69.25;98770.13;5092864;28;41999;-82
2021/08/19 03:25:53;;;;;;;0.60;0.60;;;;;;;19.09;69.59;98782.53;5120980;27;42472;-83
2021/08/19 03:28:23;;;;;;;1.03;0.83;;;;;;;18.97;69.52;98769.34;5130408;27;40275;-84
2021/08/19 03:30:53;;;;;;;0.60;0.60;;;;;;;18.93;69.44;98767.94;5112790;27;40641;-84
2021/08/19 03:33:21;;;;;;;0.40;0.40;;;;;;;19.00;69.63;98784.31;5112496;27;41656;-83
2021/08/19 03:35:49;;;;;;;0.60;0.60;;;;;;;18.94;69.38;98774.16;5131433;27;42975;-83
2021/08/19 03:38:17;;;;;;;0.50;0.50;;;;;;;19.02;69.57;98788.53;5113190;27;39417;-83
2021/08/19 03:40:44;;;;;;;0.90;0.80;;;;;;;18.98;70.03;98775.56;5130287;27;41332;-82
2021/08/19 03:43:12;;;;;;;0.80;0.80;;;;;;;18.99;69.79;98783.47;5112635;27;42124;-83
2021/08/19 03:45:41;;;;;;;0.70;0.70;;;;;;;18.91;69.60;98775.34;5130658;27;42548;-84
2021/08/19 03:48:09;;;;;;;0.80;0.80;;;;;;;18.84;69.57;98751.91;5112909;27;38994;-84
2021/08/19 03:50:36;;;;;;;0.60;0.60;;;;;;;19.02;69.51;98776.97;5112587;27;41117;-83
2021/08/19 03:53:04;;;;;;;0.60;0.60;;;;;;;19.08;69.29;98791.59;5110138;28;42913;-84
2021/08/19 03:55:32;;;;;;;0.60;0.60;;;;;;;19.09;69.17;98779.88;5109028;28;42334;-83
2021/08/19 03:57:59;;;;;;;0.50;0.50;;;;;;;19.08;69.38;98783.53;5093559;28;39805;-82
2021/08/19 04:00:27;;;;;;;0.57;0.57;;;;;;;19.06;69.21;98780.16;5118386;27;40820;-85
2021/08/19 04:02:56;;;;;;;0.70;0.70;;;;;;;19.00;69.38;98774.41;5112703;27;42699;-82
2021/08/19 04:05:24;;;;;;;0.80;0.80;;;;;;;19.02;69.36;98783.16;5131257;27;42385;-83
2021/08/19 04:07:51;;;;;;;0.50;0.50;;;;;;;19.01;69.49;98792.22;5129888;27;39459;-82
2021/08/19 04:10:20;;;;;;;0.90;0.90;;;;;;;18.98;69.53;98786.28;5129307;27;40703;-84
2021/08/19 04:12:49;;;;;;;0.77;0.77;;;;;;;18.96;69.79;98791.81;5113580;27;41761;-83
2021/08/19 04:15:16;;;;;;;0.87;0.83;;;;;;;18.99;69.74;98798.72;5107617;28;41382;-84
2021/08/19 04:17:44;;;;;;;0.80;0.80;;;;;;;18.94;69.29;98788.41;5108505;28;38824;-83
2021/08/19 04:20:13;;;;;;;0.60;0.60;;;;;;;19.01;69.71;98800.25;5091989;28;41699;-83
2021/08/19 04:22:41;;;;;;;0.70;0.70;;;;;;;19.03;69.71;98800.13;5128464;27;41843;-84
2021/08/19 04:25:09;;;;;;;0.67;0.67;;;;;;;19.02;69.66;98796.59;5146842;27;43363;-82
2021/08/19 04:27:37;;;;;;;0.87;0.87;;;;;;;19.05;69.60;98794.56;5152392;27;38791;-83
2021/08/19 04:30:05;;;;;;;0.77;0.77;;;;;;;18.96;69.14;98783.75;5151360;27;41212;-83
2021/08/19 04:32:33;;;;;;;0.70;0.70;;;;;;;19.08;69.17;98794.28;5152029;27;44359;-82
2021/08/19 04:35:00;;;;;;;0.70;0.70;;;;;;;19.10;69.17;98794.97;5151977;27;41360;-82
2021/08/19 04:37:30;;;;;;;0.67;0.57;;;;;;;19.09;69.06;98796.81;5152563;27;41328;-82
2021/08/19 04:39:57;;;;;;;0.70;0.70;;;;;;;19.11;69.35;98799.34;5121453;27;40738;-83
2021/08/19 04:42:25;;;;;;;0.97;0.87;;;;;;;19.00;69.05;98774.41;5114543;27;41917;-83
2021/08/19 04:44:53;;;;;;;0.63;0.63;;;;;;;19.15;69.29;98795.38;5131655;27;41667;-81
2021/08/19 04:47:20;;;;;;;1.30;1.13;;;;;;;19.17;68.99;98796.03;5131076;27;41007;-84
2021/08/19 04:49:48;;;;;;;1.03;0.90;;;;;;;19.18;69.13;98803.09;5114156;27;41170;-83
2021/08/19 04:52:15;;;;;;;1.43;1.30;;;;;;;19.20;68.61;98801.13;5130632;27;43087;-84
2021/08/19 04:54:44;;;;;;;1.23;1.13;;;;;;;19.22;68.72;98799.97;5129075;27;42108;-86
2021/08/19 04:57:12;;;;;;;1.40;1.30;;;;;;;19.16;68.61;98786.34;5112055;27;39064;-84
2021/08/19 04:59:40;;;;;;;1.40;1.27;;;;;;;19.20;68.56;98785.00;5129336;27;40998;-86
2021/08/19 05:02:07;;;;;;;1.10;1.03;;;;;;;19.34;68.60;98797.91;5112118;27;42094;-82
2021/08/19 05:04:35;;;;;;;1.10;0.87;;;;;;;19.38;68.57;98802.00;5112307;27;41485;-84
2021/08/19 05:07:03;;;;;;;0.80;0.80;;;;;;;19.43;68.02;98807.72;5112441;27;40562;-83
2021/08/19 05:09:30;;;;;;;0.93;0.87;;;;;;;19.39;68.07;98792.94;5112131;27;41956;-83
2021/08/19 05:12:01;;;;;;;0.83;0.83;;;;;;;19.42;68.11;98791.78;5112072;27;41724;-83
2021/08/19 05:14:28;;;;;;;1.10;1.00;;;;;;;19.51;67.92;98802.50;5129769;27;42223;-80
2021/08/19 05:16:56;;;;;;;1.00;1.00;;;;;;;19.58;67.56;98805.41;5129200;27;39964;-80
2021/08/19 05:19:24;;;;;;;0.60;0.60;;;;;;;19.63;67.72;98809.31;5128754;27;40758;-81
2021/08/19 05:21:52;;;;;;;0.80;0.80;;;;;;;19.63;67.74;98805.78;5111182;27;42245;-81
2021/08/19 05:24:20;;;;;;;1.33;1.17;;;;;;;19.58;67.58;98792.81;5110846;27;42161;-82
2021/08/19 05:26:48;;;;;;;0.93;0.90;;;;;;;19.69;67.38;98815.91;5129045;27;39971;-79
2021/08/19 05:29:17;;;;;;;0.80;0.80;;;;;;;19.73;67.34;98817.28;5129481;27;42605;-77
2021/08/19 05:31:45;;;;;;;1.60;1.20;;;;;;;19.77;67.00;98807.09;5133947;27;42701;-82
2021/08/19 05:34:12;;;;;;;1.53;0.87;;;;;;;19.82;66.89;98815.50;5114536;27;41380;-79
2021/08/19 05:36:41;;;;;;;0.70;0.70;;;;;;;19.80;67.13;98814.81;5115324;27;40709;-80
2021/08/19 05:39:09;;;;;;;0.77;0.73;;;;;;;19.79;66.94;98823.88;5131918;27;42695;-80
2021/08/19 05:41:36;;;;;;;1.30;1.00;;;;;;;19.74;67.54;98816.31;5131851;27;42557;-80
2021/08/19 05:44:05;;;;;;;0.80;0.80;;;;;;;19.69;67.62;98819.44;5132993;27;42984;-81
2021/08/19 05:46:34;;;;;;;1.33;1.13;;;;;;;19.63;68.15;98814.69;5131343;27;40006;-80
2021/08/19 05:49:01;;;;;;;0.93;0.93;;;;;;;19.59;68.60;98829.44;5133138;27;41939;-80
2021/08/19 05:51:29;;;;;;;1.07;0.93;;;;;;;19.58;68.52;98822.34;5132516;27;41924;-79
2021/08/19 05:53:57;;;;;;;1.20;1.10;;;;;;;19.70;68.67;98829.19;5132157;27;41468;-81
2021/08/19 05:56:24;;;;;;;0.80;0.80;;;;;;;19.70;68.31;98818.44;5131465;27;39028;-80
2021/08/19 05:58:52;;;;;;;0.80;0.80;;;;;;;19.77;68.16;98836.66;5131191;27;40627;-79
2021/08/19 06:01:20;;;;;;;0.90;0.90;;;;;;;19.56;68.77;98824.34;5114413;27;43077;-80
2021/08/19 06:03:49;;;;;;;1.07;0.93;;;;;;;19.57;69.55;98826.03;5132866;27;42103;-81
2021/08/19 06:06:18;;;;;;;1.10;0.90;;;;;;;19.45;69.57;98824.53;5113708;27;38862;-80
2021/08/19 06:08:45;;;;;;;0.90;0.90;;;;;;;19.46;69.73;98834.28;5131537;27;42062;-80
2021/08/19 06:11:13;;;;;;;0.70;0.70;;;;;;;19.44;70.24;98832.75;5131056;27;43265;-80
2021/08/19 06:13:41;;;;;;;1.23;1.17;;;;;;;19.37;70.76;98836.06;5113600;27;41389;-80
2021/08/19 06:16:08;;;;;;;1.03;1.03;;;;;;;19.26;71.05;98843.50;5131537;27;39985;-76
2021/08/19 06:18:36;;;;;;;1.00;1.00;;;;;;;19.16;71.66;98831.97;5132073;27;42001;-78
2021/08/19 06:21:06;;;;;;;1.60;1.13;;;;;;;19.11;71.42;98842.31;5112525;28;43077;-77
2021/08/19 06:23:33;;;;;;;0.93;0.87;;;;;;;19.07;72.02;98843.59;5092556;28;42684;-79
2021/08/19 06:26:01;;;;;;;0.90;0.90;;;;;;;19.01;71.90;98840.53;5109819;28;41301;-77
2021/08/19 06:28:29;;;;;;;1.40;1.30;;;;;;;19.03;72.80;98835.00;5112082;28;41870;-78
2021/08/19 06:30:57;;;;;;;0.70;0.70;;;;;;;19.00;73.36;98844.19;5125949;27;41630;-80
2021/08/19 06:33:24;;;;;;;1.30;1.20;;;;;;;19.02;73.14;98844.06;5130674;27;42442;-79
2021/08/19 06:35:52;;;;;;;1.63;1.17;;;;;;;19.03;72.92;98840.38;5131774;27;40080;-79
2021/08/19 06:38:21;;;;;;;1.40;1.30;;;;;;;19.00;73.14;98849.56;5130909;27;41215;-80
2021/08/19 06:40:49;;;;;;;1.90;1.13;;;;;;;18.80;72.87;98818.44;5132027;27;43928;-80
2021/08/19 06:43:17;;;;;;;0.60;0.60;;;;;;;19.05;72.98;98849.09;5130638;27;43185;-81
2021/08/19 06:45:45;;;;;;;1.20;1.00;;;;;;;19.10;72.80;98848.66;5130993;27;39032;-80
2021/08/19 06:48:12;;;;;;;0.83;0.83;;;;;;;19.16;73.14;98842.72;5129024;27;40795;-78
2021/08/19 06:50:40;;;;;;;1.00;1.00;;;;;;;19.26;72.54;98841.66;5131355;27;41736;-81
2021/08/19 06:53:09;;;;;;;1.07;1.00;;;;;;;19.48;72.77;98848.41;5131628;27;42488;-80
2021/08/19 06:55:38;;;;;;;0.90;0.90;;;;;;;19.58;72.47;98832.25;5131789;27;40960;-81
2021/08/19 06:58:07;;;;;;;1.40;1.30;;;;;;;19.86;72.24;98841.09;5121444;27;41956;-80
2021/08/19 07:00:35;;;;;;;1.20;1.10;;;;;;;20.01;71.59;98844.91;5123047;27;43386;-78
2021/08/19 07:03:02;;;;;;;0.87;0.87;;;;;;;20.23;71.43;98840.88;5111390;27;42284;-81
2021/08/19 07:05:30;;;;;;;1.13;1.00;;;;;;;20.35;70.71;98845.88;5127913;27;40116;-81
2021/08/19 07:07:59;;;;;;;0.80;0.80;;;;;;;20.43;70.34;98845.06;5164125;27;41703;-80
2021/08/19 07:10:27;;;;;;;1.00;1.00;;;;;;;20.65;70.11;98851.75;5128287;27;41593;-80
2021/08/19 07:12:57;;;;;;;1.57;1.13;;;;;;;21.07;69.06;98844.56;5130170;27;42976;-81
2021/08/19 07:15:24;;;;;;;0.60;0.60;;;;;;;21.56;67.34;98843.88;5129261;27;39975;-79
2021/08/19 07:17:52;;;;;;;0.73;0.73;;;;;;;21.95;66.82;98841.41;5129594;27;40719;-81
2021/08/19 07:20:20;;;;;;;1.20;1.10;;;;;;;22.16;65.48;98847.16;5129991;27;42687;-79
2021/08/19 07:22:48;;;;;;;0.90;0.90;;;;;;;22.15;64.63;98846.31;5130040;27;41623;-81
2021/08/19 07:25:17;;;;;;;0.90;0.83;;;;;;;22.03;64.57;98847.66;5112659;27;39074;-79
2021/08/19 07:27:46;;;;;;;1.30;1.20;;;;;;;21.88;64.58;98845.78;5130470;27;41953;-79
2021/08/19 07:30:16;;;;;;;1.43;1.33;;;;;;;21.90;65.41;98846.44;5113516;27;42292;-82
2021/08/19 07:32:45;;;;;;;1.40;1.27;;;;;;;22.04;65.03;98840.41;5130221;27;42524;-79
2021/08/19 07:35:13;;;;;;;1.00;0.90;;;;;;;22.29;64.99;98844.78;5130595;27;40143;-78
2021/08/19 07:37:48;;;;;;;0.90;0.90;;;;;;;22.39;64.42;98848.13;5129761;27;42220;-81
2021/08/19 07:40:16;;;;;;;1.40;1.00;;;;;;;22.53;63.48;98850.13;5130319;27;42992;-79
2021/08/19 07:42:44;;;;;;;1.00;1.00;;;;;;;22.57;63.27;98851.50;5131210;27;42347;-79
2021/08/19 07:45:13;;;;;;;1.00;0.70;;;;;;;22.59;63.16;98856.72;5130243;27;40206;-79
2021/08/19 07:47:43;;;;;;;0.60;0.60;;;;;;;22.60;62.95;98854.88;5130611;27;42766;-79
2021/08/19 07:50:12;;;;;;;1.00;0.87;;;;;;;22.72;62.60;98853.50;5112248;27;42323;-80
2021/08/19 07:52:40;;;;;;;0.87;0.80;;;;;;;22.84;62.36;98860.22;5112434;27;42503;-79
2021/08/19 07:55:10;;;;;;;1.10;1.03;;;;;;;22.87;62.67;98857.19;5129563;27;39183;-79
2021/08/19 07:57:45;;;;;;;1.13;0.87;;;;;;;22.87;61.94;98854.50;5130979;27;42769;-79
2021/08/19 08:00:15;;;;;;;0.60;0.53;;;;;;;22.90;61.65;98851.41;5129660;27;42859;-80
2021/08/19 08:02:44;;;;;;;1.00;1.00;;;;;;;22.87;61.39;98858.00;5130115;27;43337;-81
2021/08/19 08:05:12;;;;;;;0.77;0.60;;;;;;;22.85;61.17;98854.66;5129496;27;40737;-80
2021/08/19 08:07:40;;;;;;;1.00;0.90;;;;;;;22.79;60.71;98857.19;5129961;27;41340;-80
2021/08/19 08:10:08;;;;;;;0.50;0.50;;;;;;;22.75;61.33;98858.56;5129395;27;42642;-80
2021/08/19 08:12:36;;;;;;;0.73;0.73;;;;;;;22.83;60.95;98855.84;5112166;27;41112;-80
2021/08/19 08:15:05;;;;;;;1.13;1.03;;;;;;;22.99;60.07;98865.75;5129071;27;39311;-78
2021/08/19 08:17:33;;;;;;;0.60;0.60;;;;;;;23.05;59.54;98848.84;5112266;27;41060;-81
2021/08/19 08:20:04;;;;;;;0.87;0.77;;;;;;;23.36;59.82;98862.38;5129284;27;41744;-80
2021/08/19 08:22:32;;;;;;;1.10;1.00;;;;;;;23.52;58.38;98868.56;5128987;27;42304;-80
2021/08/19 08:24:59;;;;;;;0.70;0.70;;;;;;;23.55;57.97;98870.06;5130581;27;41037;-81
2021/08/19 08:27:27;;;;;;;0.90;0.90;;;;;;;23.60;57.95;98878.50;5163425;27;41872;-80
2021/08/19 08:29:55;;;;;;;0.83;0.83;;;;;;;23.50;58.04;98853.50;5128976;27;41812;-82
2021/08/19 08:32:23;;;;;;;0.97;0.87;;;;;;;23.57;56.79;98873.44;5130332;27;42381;-81
2021/08/19 08:34:51;;;;;;;1.00;0.90;;;;;;;23.77;56.89;98887.34;5128961;27;39021;-80
2021/08/19 08:37:23;;;;;;;0.90;0.73;;;;;;;24.10;56.08;98882.56;5129266;27;40710;-81
2021/08/19 08:39:51;;;;;;;0.70;0.70;;;;;;;24.32;54.89;98897.97;5112168;27;42127;-81
2021/08/19 08:42:19;;;;;;;0.67;0.67;;;;;;;24.47;55.29;98893.44;5130001;27;43330;-81
2021/08/19 08:44:47;;;;;;;0.63;0.63;;;;;;;24.54;54.45;98897.06;5128961;27;38965;-80
2021/08/19 08:47:18;;;;;;;0.50;0.50;;;;;;;24.46;54.24;98904.44;5128792;27;40839;-81
2021/08/19 08:49:47;;;;;;;0.43;0.43;;;;;;;24.39;53.98;98898.91;5130664;27;44262;-81
2021/08/19 08:52:15;;;;;;;0.87;0.70;;;;;;;24.53;53.57;98903.50;5128307;27;41418;-82
2021/08/19 08:54:44;;;;;;;0.60;0.60;;;;;;;24.74;53.42;98897.38;5112021;27;41199;-79
2021/08/19 08:57:12;;;;;;;0.63;0.63;;;;;;;25.11;53.75;98890.22;5111340;27;40673;-81
2021/08/19 08:59:39;;;;;;;0.77;0.77;;;;;;;25.27;52.87;98907.13;5129139;27;43943;-79
2021/08/19 09:02:07;;;;;;;1.03;0.57;;;;;;;25.37;52.36;98899.56;5112184;27;42156;-81
2021/08/19 09:04:38;;;;;;;0.77;0.77;;;;;;;25.48;50.89;98883.81;5131000;27;40015;-79
2021/08/19 09:07:06;;;;;;;0.63;0.63;;;;;;;25.76;50.42;98903.81;5132945;27;42499;-80
2021/08/19 09:09:35;;;;;;;0.87;0.87;;;;;;;25.96;50.17;98918.44;5134080;27;42922;-80
2021/08/19 09:12:09;;;;;;;0.70;0.63;;;;;;;26.00;50.05;98903.44;5132804;27;42436;-79
2021/08/19 09:14:42;;;;;;;0.80;0.80;;;;;;;26.10;50.33;98906.66;5131954;27;39827;-80
2021/08/19 09:17:10;;;;;;;0.77;0.77;;;;;;;26.17;49.79;98912.19;5114678;27;41690;-84
2021/08/19 09:19:38;;;;;;;0.70;0.70;;;;;;;26.03;49.49;98899.50;5114558;27;41814;-79
2021/08/19 09:22:09;;;;;;;1.00;1.00;;;;;;;26.04;49.86;98901.19;5115415;27;41328;-84
2021/08/19 09:24:37;;;;;;;0.53;0.53;;;;;;;26.09;50.45;98913.13;5131667;27;39218;-81
2021/08/19 09:27:14;;;;;;;0.53;0.53;;;;;;;26.11;50.69;98908.34;5132600;27;41923;-80
2021/08/19 09:29:44;;;;;;;1.03;0.70;;;;;;;26.04;48.87;98918.31;5131145;27;43039;-79
2021/08/19 09:32:15;;;;;;;0.80;0.80;;;;;;;25.92;49.59;98914.44;5114290;27;41485;-80
2021/08/19 09:34:44;;;;;;;0.93;0.80;;;;;;;25.76;49.06;98906.50;5132915;27;39855;-79
2021/08/19 09:37:14;;;;;;;0.63;0.60;;;;;;;25.87;50.13;98902.47;5132094;27;42060;-80
2021/08/19 09:39:43;;;;;;;1.03;0.80;;;;;;;25.91;50.15;98901.91;5132917;27;43824;-79
2021/08/19 09:42:14;;;;;;;1.00;0.90;;;;;;;25.87;49.48;98911.44;5114236;27;42457;-80
2021/08/19 09:44:44;;;;;;;1.10;0.90;;;;;;;25.82;50.13;98908.47;5131973;27;41906;-80
2021/08/19 09:47:30;;;;;;;0.63;0.60;;;;;;;25.74;50.40;98904.00;5132805;27;42065;-79
2021/08/19 09:50:11;;;;;;;0.53;0.53;;;;;;;25.63;50.55;98903.66;5133553;27;43035;-82
2021/08/19 09:52:40;;;;;;;0.67;0.67;;;;;;;25.49;50.60;98907.19;5131460;27;42231;-80
2021/08/19 09:55:21;;;;;;;1.00;0.70;;;;;;;25.24;50.54;98912.94;5132927;27;40073;-80
2021/08/19 09:57:51;;;;;;;1.40;1.30;;;;;;;24.89;51.56;98914.50;5133627;27;42615;-79
2021/08/19 10:00:30;;;;;;;0.70;0.70;;;;;;;24.57;52.89;98896.72;5131113;27;41703;-80
2021/08/19 10:03:13;;;;;;;0.60;0.60;;;;;;;24.52;53.44;98896.41;5131549;27;42305;-80
2021/08/19 10:05:42;;;;;;;0.50;0.50;;;;;;;24.64;53.98;98896.81;5113916;27;38969;-79
2021/08/19 10:08:10;;;;;;;0.70;0.60;;;;;;;24.80;54.19;98888.50;5113385;27;40893;-80
2021/08/19 10:10:39;;;;;;;0.80;0.80;;;;;;;25.12;53.52;98895.47;5131834;27;41645;-80
2021/08/19 10:13:12;;;;;;;0.63;0.63;;;;;;;25.52;52.96;98894.09;5112523;27;41296;-79
2021/08/19 10:15:42;;;;;;;0.70;0.70;;;;;;;25.90;51.91;98900.22;5113182;27;39961;-80
2021/08/19 10:18:13;;;;;;;0.70;0.70;;;;;;;26.14;50.56;98912.56;5114524;27;41539;-81
2021/08/19 10:20:42;;;;;;;0.93;0.87;;;;;;;26.00;50.21;98883.59;5132646;27;42905;-80
2021/08/19 10:23:13;;;;;;;0.80;0.80;;;;;;;25.92;49.55;98898.16;5130991;27;42743;-81
2021/08/19 10:25:42;;;;;;;0.93;0.70;;;;;;;25.80;50.07;98882.56;5113636;27;38867;-79
2021/08/19 10:28:17;;;;;;;0.83;0.70;;;;;;;25.66;50.42;98881.56;5131991;27;42683;-79
2021/08/19 10:30:51;;;;;;;0.77;0.77;;;;;;;25.69;50.98;98881.19;5131016;27;43119;-81
2021/08/19 10:33:43;;;;;;;0.77;0.77;;;;;;;25.98;50.55;98881.06;5129741;27;42308;-80
2021/08/19 10:36:47;;;;;;;0.53;0.53;;;;;;;26.94;49.06;98892.38;5128119;27;41656;-79
2021/08/19 10:39:39;;;;;;;0.70;0.70;;;;;;;28.32;46.41;98908.41;5130934;27;41769;-79
2021/08/19 10:42:29;;;;;;;0.80;0.80;;;;;;;29.47;42.92;98925.09;5131594;27;43083;-80
2021/08/19 10:44:59;;;;;;;0.70;0.70;;;;;;;30.13;41.68;98923.97;5129872;27;42230;-79
2021/08/19 10:47:38;;;;;;;1.03;0.80;;;;;;;30.27;41.50;98915.50;5130132;27;39375;-83
2021/08/19 10:50:29;;;;;;;0.60;0.60;;;;;;;30.29;41.48;98929.75;5132055;27;42012;-80
2021/08/19 10:52:58;;;;;;;0.70;0.70;;;;;;;30.19;41.86;98918.47;5113206;27;41799;-88
2021/08/19 10:55:38;;;;;;;0.60;0.60;;;;;;;30.00;41.42;98911.25;5113775;27;42301;-80
2021/08/19 10:58:22;;;;;;;1.07;0.80;;;;;;;29.85;40.93;98921.59;5130735;27;40089;-81
2021/08/19 11:00:52;;;;;;;0.50;0.50;;;;;;;29.65;40.71;98927.16;5130646;27;41116;-80
2021/08/19 11:03:51;;;;;;;0.63;0.63;;;;;;;29.31;40.15;98931.00;5112989;27;42124;-81
2021/08/19 11:06:22;;;;;;;0.40;0.40;;;;;;;29.06;41.09;98932.72;5088658;28;42353;-79
2021/08/19 11:08:54;;;;;;;0.60;0.50;;;;;;;28.89;40.59;98927.75;5101640;27;39072;-84
2021/08/19 11:11:30;;;;;;;0.40;0.40;;;;;;;28.71;41.92;98908.41;5131572;27;42678;-84
2021/08/19 11:14:10;;;;;;;0.43;0.43;;;;;;;28.70;41.76;98912.19;5130676;27;43273;-84
2021/08/19 11:16:41;;;;;;;0.50;0.50;;;;;;;28.80;42.41;98925.44;5131229;27;42439;-85
2021/08/19 11:19:16;;;;;;;0.40;0.40;;;;;;;28.92;42.04;98921.88;5113189;27;39789;-89
2021/08/19 11:21:44;;;;;;;0.30;0.30;;;;;;;28.98;41.21;98924.78;5113658;27;40849;-82
2021/08/19 11:24:19;;;;;;;0.60;0.60;;;;;;;29.24;41.27;98925.56;5129949;27;43945;-87
2021/08/19 11:27:01;;;;;;;0.30;0.30;;;;;;;29.48;40.06;98934.97;5131238;27;42554;-85
2021/08/19 11:29:31;;;;;;;0.40;0.40;;;;;;;29.65;39.77;98932.63;5152492;27;41153;-83
2021/08/19 11:32:05;;;;;;;0.70;0.40;;;;;;;30.02;38.89;98938.34;5110343;28;42083;-83
2021/08/19 11:34:33;;;;;;;0.80;0.43;;;;;;;30.41;39.33;98929.06;5111652;28;42966;-84
2021/08/19 11:37:02;;;;;;;0.33;0.33;;;;;;;31.00;38.07;98937.63;5143957;27;41283;-82
2021/08/19 11:39:31;;;;;;;0.40;0.40;;;;;;;31.60;37.13;98935.09;5109869;28;38992;-86
2021/08/19 11:42:00;;;;;;;0.40;0.40;;;;;;;32.07;36.83;98944.41;5125332;27;42034;-87
2021/08/19 11:44:29;;;;;;;0.50;0.50;;;;;;;32.25;35.13;98939.97;5113453;27;42056;-84